PAIN

Details ICAO PAIN (MCL)
Name Mc Kinley National Park
Region USA (Alaska)
Timezone America/Anchorage (UTC-9.0)
Plans Departing 0
Arriving 1
Stats Elevation 1,720 ft / 524 m (AMSL)
Location 63.732598° -148.910638°
Runways 1
Magnetic Variation 16.978° E
Sunrise 2017-12-14 19:38:11 UTC / 2017-12-14 10:38:11 Local
Sunset 2017-12-15 00:05:38 UTC / 2017-12-14 15:05:38 Local
Advertisement - Login to hide

Runways

ID Width Length Bearing (true) Bearing (mag) Surface Threshold Offset Overrun Length
16 100 ft / 30 m 3,003 ft / 915 m 187.00° 170.02° Gravel 0 ft / 0 m 0 ft / 0 m
34 100 ft / 30 m 3,003 ft / 915 m 7.00° 350.02° Gravel 0 ft / 0 m 0 ft / 0 m

Map

Weather


0- 5 10 15 20 25 30 35+ Temperature / ° C

Clouds and Precipitation
Forecast for 2017-12-14 18:00 UTC. Updated 2 hours ago

Ground ~20,000 ft ~40,000 ft Winds

METAR

PAIN 141656Z AUTO 00000KT 10SM CLR M03/M06 A2954 RMK AO2 SLP034 T10331061 FZRANO

TAF

Not found
Warning: Do not use this data for real-world aviation or navigation. No guarantee of current accuracy is given.